createdAt,value
2023-06-12T00:02:40.989Z,95532.00
2023-06-12T00:06:45.629Z,95538.00
2023-06-12T00:10:49.423Z,95529.00
2023-06-12T00:14:52.288Z,95542.00
2023-06-12T00:18:56.653Z,95536.00
2023-06-12T00:22:59.962Z,95530.00
2023-06-12T00:27:03.641Z,95529.00
2023-06-12T00:31:06.548Z,95527.00
2023-06-12T00:35:11.061Z,95526.00
2023-06-12T00:39:14.000Z,95531.00
2023-06-12T00:43:17.096Z,95526.00
2023-06-12T00:47:19.989Z,95525.00
2023-06-12T00:51:28.854Z,95515.00
2023-06-12T00:55:33.791Z,95519.00
2023-06-12T00:59:37.015Z,95518.00
2023-06-12T01:03:40.157Z,95513.00
2023-06-12T01:07:50.926Z,95520.00
2023-06-12T01:11:54.958Z,95508.00
2023-06-12T01:15:58.196Z,95520.00
2023-06-12T01:20:09.206Z,95519.00
2023-06-12T01:24:36.826Z,95514.00
2023-06-12T01:29:06.972Z,95522.00
2023-06-12T01:33:15.107Z,95509.00
2023-06-12T01:37:26.334Z,95510.00
2023-06-12T01:41:34.362Z,95509.00
2023-06-12T01:45:39.080Z,95506.00
2023-06-12T01:49:43.420Z,95500.00
2023-06-12T01:53:47.604Z,95501.00
2023-06-12T01:57:54.618Z,95500.00
2023-06-12T02:02:09.624Z,95504.00
2023-06-12T02:06:14.150Z,95496.00
2023-06-12T02:10:17.348Z,95502.00
2023-06-12T02:14:21.596Z,95501.00
2023-06-12T02:18:24.541Z,95504.00
2023-06-12T02:22:28.805Z,95502.00
2023-06-12T02:26:32.877Z,95501.00
2023-06-12T02:30:35.919Z,95494.00
2023-06-12T02:34:39.344Z,95506.00
2023-06-12T02:38:44.614Z,95507.00
2023-06-12T02:42:47.570Z,95505.00
2023-06-12T02:46:52.918Z,95504.00
2023-06-12T02:50:56.498Z,95495.00
2023-06-12T02:55:00.865Z,95506.00
2023-06-12T02:59:04.893Z,95502.00
2023-06-12T03:03:09.812Z,95501.00
2023-06-12T03:07:13.468Z,95503.00
2023-06-12T03:11:20.000Z,95505.00
2023-06-12T03:15:25.360Z,95502.00
2023-06-12T03:19:28.275Z,95499.00
2023-06-12T03:23:32.124Z,95506.00
2023-06-12T03:27:36.426Z,95508.00
2023-06-12T03:31:39.783Z,95511.00
2023-06-12T03:35:43.031Z,95506.00
2023-06-12T03:39:46.713Z,95517.00
2023-06-12T03:43:51.642Z,95513.00
2023-06-12T03:47:54.629Z,95518.00
2023-06-12T03:51:57.787Z,95514.00
2023-06-12T03:56:00.886Z,95514.00
2023-06-12T04:00:11.086Z,95516.00
2023-06-12T04:04:20.496Z,95519.00
2023-06-12T04:08:24.169Z,95517.00
2023-06-12T04:12:27.565Z,95516.00
2023-06-12T04:16:31.864Z,95524.00
2023-06-12T04:20:34.911Z,95518.00
2023-06-12T04:24:37.840Z,95525.00
2023-06-12T04:28:42.724Z,95520.00
2023-06-12T04:32:48.317Z,95527.00
2023-06-12T04:36:53.827Z,95526.00
2023-06-12T04:40:56.755Z,95540.00
2023-06-12T04:45:00.576Z,95530.00
2023-06-12T04:49:05.076Z,95530.00
2023-06-12T04:53:08.381Z,95529.00
2023-06-12T04:57:13.551Z,95531.00
2023-06-12T05:01:20.891Z,95521.00
2023-06-12T05:05:25.824Z,95521.00
2023-06-12T05:09:28.800Z,95521.00
2023-06-12T05:13:32.013Z,95526.00
2023-06-12T05:17:35.314Z,95532.00
2023-06-12T05:21:42.539Z,95533.00
2023-06-12T05:25:45.971Z,95535.00
2023-06-12T05:29:48.953Z,95526.00
2023-06-12T05:33:51.920Z,95540.00
2023-06-12T05:37:56.297Z,95543.00
2023-06-12T05:41:59.403Z,95547.00
2023-06-12T05:46:02.749Z,95548.00
2023-06-12T05:50:06.700Z,95544.00
2023-06-12T05:54:11.616Z,95549.00
2023-06-12T05:58:14.446Z,95541.00
2023-06-12T06:02:18.345Z,95553.00
2023-06-12T06:06:22.274Z,95553.00
2023-06-12T06:10:28.621Z,95553.00
2023-06-12T06:14:31.597Z,95551.00
2023-06-12T06:18:34.523Z,95557.00
2023-06-12T06:22:39.514Z,95563.00
2023-06-12T06:26:44.262Z,95566.00
2023-06-12T06:30:47.296Z,95576.00
2023-06-12T06:34:50.167Z,95582.00
2023-06-12T06:38:53.114Z,95567.00
2023-06-12T06:42:57.671Z,95571.00
2023-06-12T06:47:07.486Z,95573.00
2023-06-12T06:51:10.527Z,95572.00
2023-06-12T06:55:13.680Z,95575.00
2023-06-12T06:59:18.405Z,95572.00
2023-06-12T07:03:21.362Z,95573.00
2023-06-12T07:07:24.298Z,95567.00
2023-06-12T07:11:27.268Z,95573.00
2023-06-12T07:15:31.767Z,95569.00
2023-06-12T07:19:34.909Z,95567.00
2023-06-12T07:23:37.993Z,95567.00
2023-06-12T07:27:40.951Z,95566.00
2023-06-12T07:31:45.825Z,95564.00
2023-06-12T07:35:49.215Z,95564.00
2023-06-12T07:39:52.370Z,95565.00
2023-06-12T07:43:55.498Z,95567.00
2023-06-12T07:48:00.045Z,95566.00
2023-06-12T07:52:08.457Z,95571.00
2023-06-12T07:56:13.092Z,95572.00
2023-06-12T08:00:17.929Z,95572.00
2023-06-12T08:04:24.962Z,95571.00
2023-06-12T08:08:28.390Z,95570.00
2023-06-12T08:12:31.492Z,95569.00
2023-06-12T08:16:34.651Z,95571.00
2023-06-12T08:20:39.137Z,95566.00
2023-06-12T08:24:45.162Z,95575.00
2023-06-12T08:28:51.030Z,95573.00
2023-06-12T08:32:56.939Z,95586.00
2023-06-12T08:37:01.257Z,95578.00
2023-06-12T08:41:05.465Z,95581.00
2023-06-12T08:45:21.424Z,95583.00
2023-06-12T08:49:26.767Z,95579.00
2023-06-12T08:53:31.268Z,95561.00
2023-06-12T08:57:34.197Z,95569.00
2023-06-12T09:01:39.991Z,95564.00
2023-06-12T09:05:44.105Z,95571.00
2023-06-12T09:09:48.952Z,95586.00
2023-06-12T09:13:52.580Z,95568.00
2023-06-12T09:17:56.940Z,95563.00
2023-06-12T09:21:59.943Z,95566.00
2023-06-12T09:26:15.658Z,95570.00
2023-06-12T09:30:18.985Z,95565.00
2023-06-12T09:34:22.019Z,95557.00
2023-06-12T09:38:30.450Z,95565.00
2023-06-12T09:42:38.351Z,95551.00
2023-06-12T09:46:42.991Z,95561.00
2023-06-12T09:50:46.179Z,95559.00
2023-06-12T09:54:49.707Z,95550.00
2023-06-12T09:58:56.079Z,95568.00
2023-06-12T10:03:02.105Z,95556.00
2023-06-12T10:07:10.077Z,95555.00
2023-06-12T10:11:13.596Z,95540.00
2023-06-12T10:15:18.652Z,95544.00
2023-06-12T10:19:22.212Z,95539.00
2023-06-12T10:23:25.536Z,95535.00
2023-06-12T10:27:28.908Z,95540.00
2023-06-12T10:31:34.043Z,95537.00
2023-06-12T10:35:36.965Z,95536.00
2023-06-12T10:39:39.901Z,95524.00
2023-06-12T10:43:55.642Z,95532.00
2023-06-12T10:48:19.109Z,95528.00
2023-06-12T10:52:22.907Z,95521.00
2023-06-12T10:56:25.733Z,95520.00
2023-06-12T11:00:32.561Z,95515.00
2023-06-12T11:04:40.074Z,95521.00
2023-06-12T11:08:43.554Z,95522.00
2023-06-12T11:12:53.155Z,95520.00
2023-06-12T11:16:59.725Z,95517.00
2023-06-12T11:21:04.812Z,95510.00
2023-06-12T11:25:08.654Z,95504.00
2023-06-12T11:29:18.183Z,95494.00
2023-06-12T11:33:24.047Z,95502.00
2023-06-12T11:37:28.453Z,95489.00
2023-06-12T11:41:31.378Z,95491.00
2023-06-12T11:45:34.640Z,95493.00
2023-06-12T11:49:38.542Z,95499.00
2023-06-12T11:53:43.311Z,95508.00
2023-06-12T11:57:48.127Z,95502.00
2023-06-12T12:01:52.749Z,95497.00
2023-06-12T12:05:55.644Z,95495.00
2023-06-12T12:10:12.037Z,95493.00
2023-06-12T12:14:15.201Z,95499.00
2023-06-12T12:18:18.946Z,95493.00
2023-06-12T12:22:24.572Z,95498.00
2023-06-12T12:26:29.605Z,95490.00
2023-06-12T12:30:33.152Z,95494.00
2023-06-12T12:34:36.056Z,95501.00
2023-06-12T12:38:39.001Z,95493.00
2023-06-12T12:42:44.824Z,95491.00
2023-06-12T12:46:47.901Z,95500.00
2023-06-12T12:51:07.205Z,95494.00
2023-06-12T12:55:13.148Z,95502.00
2023-06-12T12:59:17.516Z,95492.00
2023-06-12T13:03:20.618Z,95487.00
2023-06-12T13:07:23.704Z,95487.00
2023-06-12T13:11:27.198Z,95483.00
2023-06-12T13:15:31.315Z,95478.00
2023-06-12T13:19:34.868Z,95477.00
2023-06-12T13:23:37.783Z,95481.00
2023-06-12T13:27:40.705Z,95482.00
2023-06-12T13:31:45.016Z,95488.00
2023-06-12T13:35:48.306Z,95479.00
2023-06-12T13:39:51.737Z,95485.00
2023-06-12T13:43:54.629Z,95468.00
2023-06-12T13:47:59.682Z,95476.00
2023-06-12T13:52:02.588Z,95480.00
2023-06-12T13:56:06.517Z,95470.00
2023-06-12T14:00:10.542Z,95470.00
2023-06-12T14:04:15.030Z,95466.00
2023-06-12T14:08:18.220Z,95475.00
2023-06-12T14:12:21.038Z,95467.00
2023-06-12T14:16:24.412Z,95467.00
2023-06-12T14:20:28.629Z,95453.00
2023-06-12T14:24:37.615Z,95450.00
2023-06-12T14:28:41.336Z,95447.00
2023-06-12T14:32:44.202Z,95462.00
2023-06-12T14:36:48.383Z,95448.00
2023-06-12T14:40:51.245Z,95445.00
2023-06-12T14:44:54.120Z,95444.00
2023-06-12T14:48:56.998Z,95441.00
2023-06-12T14:53:01.275Z,95436.00
2023-06-12T14:57:04.385Z,95438.00
2023-06-12T15:01:09.268Z,95436.00
2023-06-12T15:05:13.806Z,95430.00
2023-06-12T15:09:18.425Z,95434.00
2023-06-12T15:13:21.304Z,95439.00
2023-06-12T15:17:24.260Z,95434.00
2023-06-12T15:21:27.206Z,95425.00
2023-06-12T15:25:31.635Z,95419.00
2023-06-12T15:29:34.593Z,95417.00
2023-06-12T15:33:37.509Z,95423.00
2023-06-12T15:37:40.897Z,95417.00
2023-06-12T15:41:45.264Z,95416.00
2023-06-12T15:45:48.217Z,95416.00
2023-06-12T15:49:51.101Z,95410.00
2023-06-12T15:53:54.317Z,95418.00
2023-06-12T15:57:58.828Z,95412.00
2023-06-12T16:02:01.925Z,95410.00
2023-06-12T16:06:05.036Z,95427.00
2023-06-12T16:10:08.530Z,95419.00
2023-06-12T16:14:12.739Z,95417.00
2023-06-12T16:18:16.424Z,95412.00
2023-06-12T16:22:21.173Z,95418.00
2023-06-12T16:26:24.058Z,95420.00
2023-06-12T16:30:28.260Z,95423.00
2023-06-12T16:34:31.148Z,95408.00
2023-06-12T16:38:33.998Z,95414.00
2023-06-12T16:42:36.929Z,95413.00
2023-06-12T16:46:41.214Z,95426.00
2023-06-12T16:50:44.166Z,95412.00
2023-06-12T16:54:47.052Z,95411.00
2023-06-12T16:58:49.925Z,95417.00
2023-06-12T17:02:54.168Z,95418.00
2023-06-12T17:06:57.109Z,95419.00
2023-06-12T17:11:03.355Z,95417.00
2023-06-12T17:15:06.412Z,95407.00
2023-06-12T17:19:10.674Z,95422.00
2023-06-12T17:23:14.058Z,95416.00
2023-06-12T17:27:16.977Z,95409.00
2023-06-12T17:31:20.039Z,95419.00
2023-06-12T17:35:25.097Z,95421.00
2023-06-12T17:39:28.577Z,95423.00
2023-06-12T17:43:31.454Z,95431.00
2023-06-12T17:47:34.748Z,95424.00
2023-06-12T17:51:39.124Z,95424.00
2023-06-12T17:55:42.062Z,95427.00
2023-06-12T17:59:44.901Z,95429.00
2023-06-12T18:03:47.800Z,95425.00
2023-06-12T18:07:52.048Z,95421.00
2023-06-12T18:11:56.461Z,95428.00
2023-06-12T18:16:00.216Z,95429.00
2023-06-12T18:20:03.367Z,95433.00
2023-06-12T18:24:08.917Z,95424.00
2023-06-12T18:28:11.944Z,95426.00
2023-06-12T18:32:14.915Z,95429.00
2023-06-12T18:36:18.805Z,95425.00
2023-06-12T18:40:23.349Z,95425.00
2023-06-12T18:44:26.245Z,95431.00
2023-06-12T18:48:29.139Z,95432.00
2023-06-12T18:52:33.193Z,95425.00
2023-06-12T18:56:39.666Z,95434.00
2023-06-12T19:00:42.732Z,95440.00
2023-06-12T19:04:45.684Z,95440.00
2023-06-12T19:08:49.072Z,95434.00
2023-06-12T19:12:53.318Z,95441.00
2023-06-12T19:16:56.225Z,95440.00
2023-06-12T19:20:59.222Z,95442.00
2023-06-12T19:25:02.138Z,95442.00
2023-06-12T19:29:06.366Z,95450.00
2023-06-12T19:33:09.386Z,95450.00
2023-06-12T19:37:12.301Z,95448.00
2023-06-12T19:41:15.916Z,95463.00
2023-06-12T19:45:21.711Z,95470.00
2023-06-12T19:49:24.612Z,95471.00
2023-06-12T19:53:27.459Z,95472.00
2023-06-12T19:57:30.297Z,95468.00
2023-06-12T20:01:34.599Z,95482.00
2023-06-12T20:05:37.677Z,95474.00
2023-06-12T20:09:40.526Z,95476.00
2023-06-12T20:13:43.430Z,95477.00
2023-06-12T20:17:47.745Z,95480.00
2023-06-12T20:21:51.540Z,95468.00
2023-06-12T20:25:54.574Z,95475.00
2023-06-12T20:29:57.577Z,95469.00
2023-06-12T20:34:01.811Z,95478.00
2023-06-12T20:38:04.810Z,95465.00
2023-06-12T20:42:08.428Z,95464.00
2023-06-12T20:46:11.697Z,95464.00
2023-06-12T20:50:15.932Z,95464.00
2023-06-12T20:54:18.800Z,95461.00
2023-06-12T20:58:21.687Z,95452.00
2023-06-12T21:02:24.633Z,95450.00
2023-06-12T21:06:28.868Z,95445.00
2023-06-12T21:10:31.778Z,95446.00
2023-06-12T21:14:34.696Z,95448.00
2023-06-12T21:18:37.559Z,95445.00
2023-06-12T21:22:43.316Z,95442.00
2023-06-12T21:26:46.239Z,95442.00
2023-06-12T21:30:49.285Z,95441.00
2023-06-12T21:34:52.169Z,95440.00
2023-06-12T21:38:56.763Z,95443.00
2023-06-12T21:42:59.633Z,95452.00
2023-06-12T21:47:02.592Z,95459.00
2023-06-12T21:51:05.810Z,95454.00
2023-06-12T21:55:10.799Z,95443.00
2023-06-12T21:59:13.994Z,95450.00
2023-06-12T22:03:16.941Z,95459.00
2023-06-12T22:07:19.845Z,95445.00
2023-06-12T22:11:24.177Z,95443.00
2023-06-12T22:15:27.092Z,95448.00
2023-06-12T22:19:30.080Z,95443.00
2023-06-12T22:23:33.364Z,95450.00
2023-06-12T22:27:37.621Z,95438.00
2023-06-12T22:31:43.097Z,95437.00
2023-06-12T22:35:46.531Z,95438.00
2023-06-12T22:39:49.470Z,95442.00
2023-06-12T22:43:53.702Z,95434.00
2023-06-12T22:47:58.151Z,95434.00
2023-06-12T22:52:06.518Z,95433.00
2023-06-12T22:56:09.366Z,95426.00
2023-06-12T23:00:15.472Z,95434.00
2023-06-12T23:04:18.417Z,95421.00
2023-06-12T23:08:21.218Z,95421.00
2023-06-12T23:12:24.232Z,95425.00
2023-06-12T23:16:29.387Z,95417.00
2023-06-12T23:20:32.768Z,95418.00
2023-06-12T23:24:35.929Z,95421.00
2023-06-12T23:28:38.819Z,95419.00
2023-06-12T23:32:43.515Z,95422.00
2023-06-12T23:36:46.876Z,95423.00
2023-06-12T23:40:49.800Z,95417.00
2023-06-12T23:44:53.371Z,95424.00
2023-06-12T23:48:57.644Z,95419.00
2023-06-12T23:53:00.491Z,95415.00
2023-06-12T23:57:03.359Z,95414.00
